createdAt,value
2017-09-13T00:00:33.093Z,998.35
2017-09-13T00:01:33.060Z,998.34
2017-09-13T00:02:33.031Z,998.32
2017-09-13T00:03:32.997Z,998.30
2017-09-13T00:04:32.965Z,998.16
2017-09-13T00:05:32.936Z,998.25
2017-09-13T00:06:32.903Z,998.23
2017-09-13T00:07:32.872Z,998.21
2017-09-13T00:08:32.841Z,998.16
2017-09-13T00:09:32.810Z,998.07
2017-09-13T00:10:32.776Z,997.97
2017-09-13T00:11:32.744Z,997.91
2017-09-13T00:12:32.713Z,997.93
2017-09-13T00:13:32.684Z,997.75
2017-09-13T00:14:32.656Z,997.83
2017-09-13T00:15:32.619Z,997.84
2017-09-13T00:16:32.589Z,997.79
2017-09-13T00:17:32.558Z,997.76
2017-09-13T00:18:32.526Z,997.68
2017-09-13T00:19:32.492Z,997.61
2017-09-13T00:20:32.462Z,997.55
2017-09-13T00:21:32.431Z,997.55
2017-09-13T00:22:32.400Z,997.50
2017-09-13T00:23:32.374Z,997.48
2017-09-13T00:24:32.338Z,997.39
2017-09-13T00:25:32.305Z,997.42
2017-09-13T00:26:32.275Z,997.45
2017-09-13T00:27:32.257Z,997.30
2017-09-13T00:28:32.213Z,997.22
2017-09-13T00:29:32.179Z,997.18
2017-09-13T00:30:32.151Z,997.14
2017-09-13T00:31:32.117Z,997.13
2017-09-13T00:32:32.085Z,996.97
2017-09-13T00:33:32.055Z,996.91
2017-09-13T00:34:32.025Z,997.01
2017-09-13T00:35:31.992Z,996.90
2017-09-13T00:36:31.961Z,996.93
2017-09-13T00:37:31.928Z,996.84
2017-09-13T00:38:31.898Z,996.82
2017-09-13T00:39:31.867Z,996.87
2017-09-13T00:40:31.835Z,996.78
2017-09-13T00:41:31.806Z,996.74
2017-09-13T00:42:31.773Z,996.74
2017-09-13T00:43:32.142Z,996.78
2017-09-13T00:44:31.711Z,996.81
2017-09-13T00:45:31.678Z,996.67
2017-09-13T00:46:31.648Z,996.68
2017-09-13T00:47:31.617Z,996.54
2017-09-13T00:48:31.585Z,996.60
2017-09-13T00:49:31.554Z,996.54
2017-09-13T00:50:31.522Z,996.59
2017-09-13T00:51:31.490Z,996.57
2017-09-13T00:52:31.461Z,996.50
2017-09-13T00:53:31.429Z,996.50
2017-09-13T00:54:31.396Z,996.54
2017-09-13T00:55:31.364Z,996.58
2017-09-13T00:56:31.335Z,996.44
2017-09-13T00:57:31.301Z,996.45
2017-09-13T00:58:31.271Z,996.36
2017-09-13T00:59:31.500Z,996.44
2017-09-13T01:00:31.208Z,996.32
2017-09-13T01:01:31.177Z,996.17
2017-09-13T01:02:31.532Z,996.09
2017-09-13T01:03:31.115Z,996.09
2017-09-13T01:04:31.083Z,996.05
2017-09-13T01:05:31.053Z,995.84
2017-09-13T01:06:31.026Z,996.02
2017-09-13T01:07:30.991Z,995.96
2017-09-13T01:08:30.957Z,995.81
2017-09-13T01:09:30.928Z,995.79
2017-09-13T01:10:30.896Z,995.74
2017-09-13T01:11:30.863Z,995.76
2017-09-13T01:12:30.832Z,995.63
2017-09-13T01:13:30.807Z,995.59
2017-09-13T01:14:30.772Z,995.59
2017-09-13T01:15:30.740Z,995.52
2017-09-13T01:16:30.710Z,995.43
2017-09-13T01:17:30.678Z,995.42
2017-09-13T01:18:30.646Z,995.32
2017-09-13T01:19:30.614Z,995.35
2017-09-13T01:20:30.584Z,995.32
2017-09-13T01:21:30.556Z,995.21
2017-09-13T01:22:31.161Z,995.32
2017-09-13T01:23:30.490Z,995.24
2017-09-13T01:24:30.459Z,995.16
2017-09-13T01:25:30.428Z,995.04
2017-09-13T01:26:30.397Z,995.04
2017-09-13T01:27:30.365Z,995.03
2017-09-13T01:28:30.332Z,994.90
2017-09-13T01:29:30.303Z,994.93
2017-09-13T01:30:30.274Z,994.88
2017-09-13T01:31:30.241Z,994.84
2017-09-13T01:32:30.212Z,994.73
2017-09-13T01:33:30.180Z,994.63
2017-09-13T01:34:30.178Z,994.69
2017-09-13T01:35:30.117Z,994.64
2017-09-13T01:36:30.085Z,994.63
2017-09-13T01:37:30.054Z,994.45
2017-09-13T01:38:30.024Z,994.47
2017-09-13T01:39:29.992Z,994.47
2017-09-13T01:40:29.961Z,994.39
2017-09-13T01:41:29.930Z,994.29
2017-09-13T01:42:29.898Z,994.07
2017-09-13T01:43:29.874Z,994.29
2017-09-13T01:44:29.834Z,994.23
2017-09-13T01:45:29.806Z,994.15
2017-09-13T01:46:29.775Z,994.03
2017-09-13T01:47:29.744Z,994.09
2017-09-13T01:48:29.713Z,994.03
2017-09-13T01:49:29.685Z,994.04
2017-09-13T01:50:29.652Z,994.07
2017-09-13T01:51:29.618Z,993.90
2017-09-13T01:52:29.587Z,993.78
2017-09-13T01:53:29.558Z,993.87
2017-09-13T01:54:29.527Z,993.86
2017-09-13T01:55:29.495Z,993.83
2017-09-13T01:56:29.464Z,993.67
2017-09-13T01:57:29.435Z,993.79
2017-09-13T01:58:29.403Z,993.72
2017-09-13T01:59:29.372Z,993.58
2017-09-13T02:00:29.342Z,993.50
2017-09-13T02:01:29.312Z,993.56
2017-09-13T02:02:29.280Z,993.37
2017-09-13T02:03:29.249Z,993.16
2017-09-13T02:04:29.218Z,993.27
2017-09-13T02:05:29.189Z,993.24
2017-09-13T02:06:29.158Z,993.18
2017-09-13T02:07:29.124Z,993.25
2017-09-13T02:08:29.094Z,993.17
2017-09-13T02:09:29.064Z,993.30
2017-09-13T02:10:29.033Z,993.25
2017-09-13T02:11:29.001Z,993.15
2017-09-13T02:12:28.977Z,993.20
2017-09-13T02:13:28.945Z,993.17
2017-09-13T02:14:28.910Z,993.08
2017-09-13T02:15:28.880Z,993.07
2017-09-13T02:16:28.848Z,993.04
2017-09-13T02:17:28.818Z,993.17
2017-09-13T02:18:28.787Z,993.10
2017-09-13T02:19:28.754Z,993.05
2017-09-13T02:20:28.723Z,992.95
2017-09-13T02:21:28.696Z,993.11
2017-09-13T02:22:28.666Z,993.06
2017-09-13T02:23:28.631Z,993.07
2017-09-13T02:24:28.600Z,993.14
2017-09-13T02:25:28.570Z,992.96
2017-09-13T02:26:28.541Z,992.82
2017-09-13T02:27:28.508Z,992.96
2017-09-13T02:28:28.479Z,992.82
2017-09-13T02:29:28.447Z,992.95
2017-09-13T02:30:28.501Z,992.86
2017-09-13T02:31:28.385Z,992.86
2017-09-13T02:32:28.362Z,992.93
2017-09-13T02:33:28.324Z,992.88
2017-09-13T02:34:28.295Z,992.90
2017-09-13T02:35:28.261Z,992.78
2017-09-13T02:36:28.233Z,992.86
2017-09-13T02:37:28.199Z,992.89
2017-09-13T02:38:28.172Z,992.89
2017-09-13T02:39:28.138Z,992.89
2017-09-13T02:40:28.111Z,992.81
2017-09-13T02:41:28.078Z,992.89
2017-09-13T02:42:28.048Z,992.81
2017-09-13T02:43:28.017Z,992.84
2017-09-13T02:44:27.987Z,992.76
2017-09-13T02:45:27.953Z,992.76
2017-09-13T02:46:27.923Z,992.66
2017-09-13T02:47:27.891Z,992.83
2017-09-13T02:48:27.860Z,992.68
2017-09-13T02:49:27.831Z,992.44
2017-09-13T02:50:27.799Z,992.37
2017-09-13T02:51:27.766Z,992.53
2017-09-13T02:52:27.737Z,992.35
2017-09-13T02:53:27.706Z,992.50
2017-09-13T02:54:27.673Z,992.68
2017-09-13T02:55:27.642Z,992.35
2017-09-13T02:56:27.610Z,992.51
2017-09-13T02:57:27.581Z,992.53
2017-09-13T02:58:27.547Z,992.52
2017-09-13T02:59:27.515Z,992.56
2017-09-13T03:00:27.484Z,992.46
2017-09-13T03:01:27.452Z,992.51
2017-09-13T03:02:27.427Z,992.25
2017-09-13T03:03:27.391Z,992.39
2017-09-13T03:04:27.359Z,992.49
2017-09-13T03:05:27.327Z,992.61
2017-09-13T03:06:27.294Z,992.37
2017-09-13T03:07:27.261Z,992.14
2017-09-13T03:08:27.230Z,992.41
2017-09-13T03:09:27.199Z,992.39
2017-09-13T03:10:27.167Z,992.22
2017-09-13T03:11:27.133Z,992.21
2017-09-13T03:12:27.101Z,991.90
2017-09-13T03:13:27.071Z,992.02
2017-09-13T03:14:27.040Z,992.17
2017-09-13T03:15:27.007Z,991.96
2017-09-13T03:16:26.976Z,992.04
2017-09-13T03:17:26.944Z,992.03
2017-09-13T03:18:26.913Z,992.03
2017-09-13T03:19:26.881Z,991.78
2017-09-13T03:20:26.866Z,992.04
2017-09-13T03:21:26.817Z,991.83
2017-09-13T03:22:26.787Z,991.86
2017-09-13T03:23:26.753Z,991.83
2017-09-13T03:24:27.029Z,991.85
2017-09-13T03:25:26.690Z,991.83
2017-09-13T03:26:26.661Z,991.77
2017-09-13T03:27:26.625Z,991.78
2017-09-13T03:28:26.595Z,991.90
2017-09-13T03:29:26.571Z,991.74
2017-09-13T03:30:26.574Z,991.82
2017-09-13T03:31:26.501Z,991.73
2017-09-13T03:32:26.468Z,991.71
2017-09-13T03:33:26.436Z,991.71
2017-09-13T03:34:26.404Z,991.76
2017-09-13T03:35:26.370Z,991.64
2017-09-13T03:36:26.341Z,991.63
2017-09-13T03:37:26.310Z,991.53
2017-09-13T03:38:26.277Z,991.74
2017-09-13T03:39:26.244Z,991.48
2017-09-13T03:40:26.215Z,991.66
2017-09-13T03:41:26.182Z,991.46
2017-09-13T03:42:26.150Z,991.35
2017-09-13T03:43:26.118Z,991.37
2017-09-13T03:44:26.087Z,991.46
2017-09-13T03:45:26.055Z,991.44
2017-09-13T03:46:26.024Z,991.41
2017-09-13T03:47:25.992Z,991.52
2017-09-13T03:48:25.961Z,991.47
2017-09-13T03:49:25.929Z,991.43
2017-09-13T03:50:25.896Z,991.21
2017-09-13T03:51:25.864Z,991.43
2017-09-13T03:52:25.834Z,991.36
2017-09-13T03:53:25.801Z,991.24
2017-09-13T03:54:25.937Z,991.42
2017-09-13T03:55:25.736Z,991.17
2017-09-13T03:56:25.706Z,991.12
2017-09-13T03:57:25.944Z,991.27
2017-09-13T03:58:25.644Z,991.41
2017-09-13T03:59:25.612Z,991.37
2017-09-13T04:00:25.952Z,991.38
2017-09-13T04:01:25.547Z,991.35
2017-09-13T04:02:25.516Z,991.24
2017-09-13T04:03:25.574Z,991.19
2017-09-13T04:04:25.453Z,991.19
2017-09-13T04:05:25.423Z,991.16
2017-09-13T04:06:25.391Z,990.98
2017-09-13T04:07:25.358Z,991.18
2017-09-13T04:08:25.332Z,991.05
2017-09-13T04:09:25.297Z,990.96
2017-09-13T04:10:25.267Z,991.04
2017-09-13T04:11:25.234Z,991.08
2017-09-13T04:12:25.201Z,991.08
2017-09-13T04:13:25.171Z,990.90
2017-09-13T04:14:25.141Z,990.97
2017-09-13T04:15:25.102Z,990.90
2017-09-13T04:16:25.077Z,990.91
2017-09-13T04:17:25.046Z,990.95
2017-09-13T04:18:25.013Z,990.95
2017-09-13T04:19:24.981Z,990.82
2017-09-13T04:20:24.951Z,990.79
2017-09-13T04:21:24.920Z,990.67
2017-09-13T04:22:24.887Z,990.73
2017-09-13T04:23:24.861Z,990.77
2017-09-13T04:24:24.825Z,990.71
2017-09-13T04:25:24.795Z,990.72
2017-09-13T04:26:24.763Z,990.79
2017-09-13T04:27:24.732Z,990.74
2017-09-13T04:28:24.701Z,990.56
2017-09-13T04:29:24.667Z,990.64
2017-09-13T04:30:24.637Z,990.63
2017-09-13T04:31:24.606Z,990.80
2017-09-13T04:32:24.573Z,990.87
2017-09-13T04:33:24.883Z,990.64
2017-09-13T04:34:24.512Z,990.56
2017-09-13T04:35:24.479Z,990.56
2017-09-13T04:36:24.983Z,990.81
2017-09-13T04:37:24.976Z,990.64
2017-09-13T04:38:24.385Z,990.51
2017-09-13T04:39:24.353Z,990.66
2017-09-13T04:40:24.323Z,990.66
2017-09-13T04:41:24.291Z,990.73
2017-09-13T04:42:24.980Z,990.54
2017-09-13T04:43:24.228Z,990.57
2017-09-13T04:44:24.198Z,990.54
2017-09-13T04:45:24.166Z,990.45
2017-09-13T04:46:24.133Z,990.47
2017-09-13T04:47:24.103Z,990.45
2017-09-13T04:48:24.126Z,990.28
2017-09-13T04:49:24.041Z,990.39
2017-09-13T04:50:24.010Z,990.45
2017-09-13T04:51:24.228Z,990.40
2017-09-13T04:52:23.945Z,990.63
2017-09-13T04:53:23.916Z,990.49
2017-09-13T04:54:23.883Z,990.54
2017-09-13T04:55:23.851Z,990.29
2017-09-13T04:56:23.820Z,990.44
2017-09-13T04:57:23.790Z,990.28
2017-09-13T04:58:23.758Z,990.19
2017-09-13T04:59:23.729Z,990.29
2017-09-13T05:00:23.696Z,990.17
2017-09-13T05:01:23.663Z,990.36
2017-09-13T05:02:23.634Z,990.41
2017-09-13T05:03:23.600Z,990.34
2017-09-13T05:04:23.571Z,990.25
2017-09-13T05:05:23.534Z,990.27
2017-09-13T05:06:23.508Z,990.22
2017-09-13T05:07:23.474Z,990.36
2017-09-13T05:08:23.460Z,990.31
2017-09-13T05:09:23.414Z,990.37
2017-09-13T05:10:23.383Z,990.37
2017-09-13T05:11:23.351Z,990.11
2017-09-13T05:12:23.516Z,990.20
2017-09-13T05:13:23.289Z,990.10
2017-09-13T05:14:23.258Z,989.98
2017-09-13T05:15:23.228Z,990.10
2017-09-13T05:16:23.213Z,989.92
2017-09-13T05:17:23.731Z,990.28
2017-09-13T05:18:23.134Z,990.31
2017-09-13T05:19:23.110Z,990.14
2017-09-13T05:20:23.072Z,990.19
2017-09-13T05:21:23.041Z,990.15
2017-09-13T05:22:23.010Z,990.31
2017-09-13T05:23:22.978Z,990.38
2017-09-13T05:24:22.947Z,990.28
2017-09-13T05:25:22.916Z,990.37
2017-09-13T05:26:22.889Z,990.19
2017-09-13T05:27:22.875Z,990.36
2017-09-13T05:28:22.824Z,990.40
2017-09-13T05:29:22.794Z,990.41
2017-09-13T05:30:22.763Z,990.43
2017-09-13T05:31:22.733Z,990.42
2017-09-13T05:32:22.701Z,990.45
2017-09-13T05:33:22.673Z,990.34
2017-09-13T05:34:22.639Z,990.26
2017-09-13T05:35:22.611Z,990.48
2017-09-13T05:36:22.578Z,990.33
2017-09-13T05:37:22.547Z,989.90
2017-09-13T05:38:22.516Z,990.04
2017-09-13T05:39:22.485Z,990.16
2017-09-13T05:40:22.454Z,990.12
2017-09-13T05:41:22.424Z,989.98
2017-09-13T05:42:22.387Z,989.94
2017-09-13T05:43:22.362Z,990.07
2017-09-13T05:44:22.331Z,989.92
2017-09-13T05:45:22.301Z,990.07
2017-09-13T05:46:22.271Z,990.00
2017-09-13T05:47:22.240Z,990.10
2017-09-13T05:48:22.210Z,990.19
2017-09-13T05:49:22.611Z,990.15
2017-09-13T05:50:22.149Z,990.19
2017-09-13T05:51:22.117Z,990.17
2017-09-13T05:52:22.089Z,989.92
2017-09-13T05:53:22.057Z,990.07
2017-09-13T05:54:22.026Z,990.16
2017-09-13T05:55:21.996Z,990.08
2017-09-13T05:56:21.971Z,990.18
2017-09-13T05:57:21.935Z,990.04
2017-09-13T05:58:21.907Z,990.04
2017-09-13T05:59:21.874Z,990.26
2017-09-13T06:00:21.845Z,990.24
2017-09-13T06:01:21.815Z,990.25
2017-09-13T06:02:21.783Z,989.98
2017-09-13T06:03:21.754Z,990.05
2017-09-13T06:04:21.722Z,990.11
2017-09-13T06:05:21.974Z,990.15
2017-09-13T06:06:21.664Z,990.44
2017-09-13T06:07:21.633Z,990.32
2017-09-13T06:08:21.604Z,990.17
2017-09-13T06:09:21.572Z,990.05
2017-09-13T06:10:21.539Z,989.81
2017-09-13T06:11:21.513Z,990.22
2017-09-13T06:12:21.483Z,990.06
2017-09-13T06:13:21.454Z,990.02
2017-09-13T06:14:21.425Z,990.03
2017-09-13T06:15:21.393Z,990.20
2017-09-13T06:16:21.363Z,990.55
2017-09-13T06:17:21.335Z,990.54
2017-09-13T06:18:21.641Z,990.54
2017-09-13T06:19:21.274Z,990.63
2017-09-13T06:20:21.244Z,990.36
2017-09-13T06:21:21.216Z,990.48
2017-09-13T06:22:21.187Z,990.55
2017-09-13T06:23:21.451Z,990.54
2017-09-13T06:24:21.125Z,990.51
2017-09-13T06:25:21.097Z,990.51
2017-09-13T06:26:21.078Z,990.65
2017-09-13T06:27:21.036Z,990.35
2017-09-13T06:28:21.006Z,990.37
2017-09-13T06:29:21.468Z,990.56
2017-09-13T06:30:20.948Z,990.37
2017-09-13T06:31:20.915Z,990.60
2017-09-13T06:32:20.886Z,990.47
2017-09-13T06:33:20.858Z,990.47
2017-09-13T06:34:20.826Z,990.54
2017-09-13T06:35:20.795Z,990.65
2017-09-13T06:36:20.766Z,990.44
2017-09-13T06:37:20.734Z,990.40
2017-09-13T06:38:20.708Z,990.53
2017-09-13T06:39:20.674Z,990.52
2017-09-13T06:40:20.646Z,990.53
2017-09-13T06:41:20.617Z,990.61
2017-09-13T06:42:20.586Z,990.62
2017-09-13T06:43:20.556Z,990.68
2017-09-13T06:44:20.529Z,990.75
2017-09-13T06:45:20.497Z,990.84
2017-09-13T06:46:20.467Z,990.65
2017-09-13T06:47:20.438Z,990.81
2017-09-13T06:48:20.408Z,990.89
2017-09-13T06:49:20.379Z,990.77
2017-09-13T06:50:20.354Z,990.40
2017-09-13T06:51:20.321Z,990.29
2017-09-13T06:52:20.289Z,990.72
2017-09-13T06:53:20.262Z,990.47
2017-09-13T06:54:20.233Z,990.36
2017-09-13T06:55:20.203Z,990.35
2017-09-13T06:56:20.168Z,990.37
2017-09-13T06:57:20.144Z,990.44
2017-09-13T06:58:20.114Z,990.45
2017-09-13T06:59:20.085Z,990.31
2017-09-13T07:00:20.056Z,990.33
2017-09-13T07:01:20.031Z,990.51
2017-09-13T07:02:19.997Z,990.08
2017-09-13T07:03:19.968Z,990.56
2017-09-13T07:04:19.941Z,990.71
2017-09-13T07:05:19.911Z,990.68
2017-09-13T07:06:19.883Z,990.72
2017-09-13T07:07:19.852Z,990.54
2017-09-13T07:08:19.824Z,990.73
2017-09-13T07:09:19.795Z,990.74
2017-09-13T07:10:19.771Z,990.89
2017-09-13T07:11:19.741Z,990.80
2017-09-13T07:12:19.710Z,990.83
2017-09-13T07:13:19.682Z,990.93
2017-09-13T07:14:19.654Z,990.63
2017-09-13T07:15:19.627Z,990.73
2017-09-13T07:16:19.598Z,990.57
2017-09-13T07:17:19.572Z,990.84
2017-09-13T07:18:19.547Z,990.80
2017-09-13T07:19:19.516Z,990.72
2017-09-13T07:20:19.487Z,990.44
2017-09-13T07:21:19.462Z,990.22
2017-09-13T07:22:19.436Z,990.46
2017-09-13T07:23:19.407Z,990.39
2017-09-13T07:24:19.382Z,990.56
2017-09-13T07:25:19.355Z,990.33
2017-09-13T07:26:19.330Z,990.73
2017-09-13T07:27:19.302Z,990.61
2017-09-13T07:28:19.276Z,990.45
2017-09-13T07:29:19.249Z,990.34
2017-09-13T07:30:19.225Z,990.60
2017-09-13T07:31:19.196Z,990.45
2017-09-13T07:32:19.171Z,990.74
2017-09-13T07:33:19.549Z,990.46
2017-09-13T07:34:19.113Z,990.81
2017-09-13T07:35:19.092Z,990.92
2017-09-13T07:36:19.067Z,990.73
2017-09-13T07:37:19.047Z,990.82
2017-09-13T07:38:19.018Z,990.80
2017-09-13T07:39:18.990Z,991.07
2017-09-13T07:40:18.967Z,990.81
2017-09-13T07:41:18.941Z,990.87
2017-09-13T07:42:18.918Z,991.04
2017-09-13T07:43:18.892Z,990.64
2017-09-13T07:44:18.868Z,990.60
2017-09-13T07:45:18.843Z,990.96
2017-09-13T07:46:18.819Z,991.06
2017-09-13T07:47:18.794Z,991.00
2017-09-13T07:48:18.866Z,991.31
2017-09-13T07:49:18.749Z,991.00
2017-09-13T07:50:18.728Z,990.61
2017-09-13T07:51:18.700Z,990.84
2017-09-13T07:52:18.675Z,990.63
2017-09-13T07:53:18.652Z,990.84
2017-09-13T07:54:18.629Z,990.86
2017-09-13T07:55:18.605Z,990.62
2017-09-13T07:56:18.579Z,990.83
2017-09-13T07:57:18.554Z,991.10
2017-09-13T07:58:18.528Z,990.79
2017-09-13T07:59:18.504Z,990.94
2017-09-13T08:00:18.480Z,991.00
2017-09-13T08:01:18.452Z,990.68
2017-09-13T08:02:18.435Z,990.74
2017-09-13T08:03:18.401Z,990.76
2017-09-13T08:04:18.373Z,990.99
2017-09-13T08:05:18.350Z,990.93
2017-09-13T08:06:18.324Z,990.83
2017-09-13T08:07:18.298Z,991.11
2017-09-13T08:08:18.272Z,991.03
2017-09-13T08:09:18.247Z,991.17
2017-09-13T08:10:18.225Z,991.31
2017-09-13T08:11:18.196Z,991.28
2017-09-13T08:12:18.173Z,990.51
2017-09-13T08:13:18.149Z,990.89
2017-09-13T08:14:18.123Z,991.23
2017-09-13T08:15:18.097Z,991.14
2017-09-13T08:16:18.076Z,991.30
2017-09-13T08:17:18.051Z,990.96
2017-09-13T08:18:18.028Z,991.10
2017-09-13T08:19:18.003Z,990.78
2017-09-13T08:20:17.977Z,991.26
2017-09-13T08:21:17.956Z,991.20
2017-09-13T08:22:17.934Z,990.28
2017-09-13T08:23:17.913Z,990.96
2017-09-13T08:24:17.887Z,991.14
2017-09-13T08:25:17.864Z,991.23
2017-09-13T08:26:17.842Z,991.04
2017-09-13T08:27:17.819Z,991.33
2017-09-13T08:28:17.795Z,991.37
2017-09-13T08:29:17.773Z,991.24
2017-09-13T08:30:17.750Z,991.26
2017-09-13T08:31:17.727Z,990.87
2017-09-13T08:32:17.705Z,991.22
2017-09-13T08:33:17.683Z,991.09
2017-09-13T08:34:17.664Z,991.54
2017-09-13T08:35:17.639Z,991.04
2017-09-13T08:36:17.615Z,990.97
2017-09-13T08:37:17.594Z,990.94
2017-09-13T08:38:17.571Z,990.92
2017-09-13T08:39:17.550Z,991.14
2017-09-13T08:40:17.525Z,991.41
2017-09-13T08:41:17.502Z,990.72
2017-09-13T08:42:17.479Z,991.06
2017-09-13T08:43:17.453Z,991.16
2017-09-13T08:44:17.431Z,991.22
2017-09-13T08:45:17.405Z,991.06
2017-09-13T08:46:17.382Z,991.45
2017-09-13T08:47:17.355Z,991.50
2017-09-13T08:48:17.331Z,991.47
2017-09-13T08:49:17.307Z,991.42
2017-09-13T08:50:17.279Z,991.76
2017-09-13T08:51:17.255Z,991.34
2017-09-13T08:52:17.228Z,991.23
2017-09-13T08:53:17.202Z,991.19
2017-09-13T08:54:17.176Z,991.01
2017-09-13T08:55:17.150Z,991.31
2017-09-13T08:56:17.124Z,991.30
2017-09-13T08:57:17.099Z,991.34
2017-09-13T08:58:17.070Z,991.33
2017-09-13T08:59:17.042Z,991.37
2017-09-13T09:00:17.016Z,991.39
2017-09-13T09:01:16.988Z,991.51
2017-09-13T09:02:16.967Z,991.55
2017-09-13T09:03:16.932Z,991.58
2017-09-13T09:04:16.905Z,991.50
2017-09-13T09:05:16.917Z,991.50
2017-09-13T09:06:16.851Z,991.56
2017-09-13T09:07:16.820Z,991.35
2017-09-13T09:08:16.791Z,991.26
2017-09-13T09:09:16.779Z,991.19
2017-09-13T09:10:16.738Z,991.32
2017-09-13T09:11:16.709Z,991.13
2017-09-13T09:12:16.679Z,990.45
2017-09-13T09:13:16.651Z,991.45
2017-09-13T09:14:16.623Z,991.57
2017-09-13T09:15:16.594Z,991.15
2017-09-13T09:16:16.566Z,991.19
2017-09-13T09:17:16.538Z,991.51
2017-09-13T09:18:16.508Z,991.03
2017-09-13T09:19:16.478Z,991.41
2017-09-13T09:20:16.451Z,991.47
2017-09-13T09:21:16.422Z,991.58
2017-09-13T09:22:16.392Z,991.58
2017-09-13T09:23:16.364Z,991.73
2017-09-13T09:24:16.334Z,991.67
2017-09-13T09:25:16.308Z,991.94
2017-09-13T09:26:16.277Z,992.05
2017-09-13T09:27:16.247Z,991.60
2017-09-13T09:28:16.218Z,991.64
2017-09-13T09:29:16.190Z,991.80
2017-09-13T09:30:16.161Z,991.61
2017-09-13T09:31:16.132Z,991.69
2017-09-13T09:32:16.103Z,991.64
2017-09-13T09:33:16.073Z,991.52
2017-09-13T09:34:16.046Z,991.62
2017-09-13T09:35:16.016Z,991.66
2017-09-13T09:36:15.988Z,992.03
2017-09-13T09:37:15.959Z,991.92
2017-09-13T09:38:15.936Z,991.61
2017-09-13T09:39:15.903Z,992.15
2017-09-13T09:40:15.876Z,991.72
2017-09-13T09:41:15.850Z,991.61
2017-09-13T09:42:15.823Z,991.60
2017-09-13T09:43:15.794Z,991.42
2017-09-13T09:44:15.767Z,990.74
2017-09-13T09:45:15.741Z,991.02
2017-09-13T09:46:15.713Z,991.21
2017-09-13T09:47:15.683Z,990.81
2017-09-13T09:48:15.657Z,991.57
2017-09-13T09:49:15.629Z,991.69
2017-09-13T09:50:15.602Z,991.87
2017-09-13T09:51:15.574Z,991.45
2017-09-13T09:52:15.546Z,991.62
2017-09-13T09:53:15.518Z,991.77
2017-09-13T09:54:15.490Z,991.77
2017-09-13T09:55:15.462Z,991.77
2017-09-13T09:56:15.434Z,991.51
2017-09-13T09:57:15.406Z,991.42
2017-09-13T09:58:15.385Z,990.96
2017-09-13T09:59:15.356Z,992.54
2017-09-13T10:00:15.325Z,992.54
2017-09-13T10:01:15.296Z,991.58
2017-09-13T10:02:15.270Z,991.79
2017-09-13T10:03:15.244Z,991.87
2017-09-13T10:04:15.215Z,992.37
2017-09-13T10:05:15.188Z,992.97
2017-09-13T10:06:15.163Z,993.18
2017-09-13T10:07:15.136Z,992.89
2017-09-13T10:08:15.109Z,992.70
2017-09-13T10:09:15.084Z,992.12
2017-09-13T10:10:15.061Z,992.53
2017-09-13T10:11:15.037Z,992.61
2017-09-13T10:12:15.015Z,992.68
2017-09-13T10:13:14.992Z,992.76
2017-09-13T10:14:14.971Z,992.65
2017-09-13T10:15:14.948Z,992.91
2017-09-13T10:16:14.945Z,992.69
2017-09-13T10:17:14.906Z,992.47
2017-09-13T10:18:14.886Z,993.02
2017-09-13T10:19:14.864Z,992.68
2017-09-13T10:20:14.845Z,992.68
2017-09-13T10:21:14.825Z,992.58
2017-09-13T10:22:14.804Z,992.69
2017-09-13T10:23:14.784Z,992.65
2017-09-13T10:24:14.768Z,992.70
2017-09-13T10:25:14.746Z,992.62
2017-09-13T10:26:14.726Z,992.53
2017-09-13T10:27:14.707Z,992.65
2017-09-13T10:28:14.687Z,992.94
2017-09-13T10:29:14.670Z,992.75
2017-09-13T10:30:14.648Z,992.50
2017-09-13T10:31:14.633Z,992.80
2017-09-13T10:32:14.611Z,992.64
2017-09-13T10:33:14.590Z,992.93
2017-09-13T10:34:14.570Z,992.34
2017-09-13T10:35:14.551Z,992.83
2017-09-13T10:36:14.656Z,992.71
2017-09-13T10:37:14.513Z,992.66
2017-09-13T10:38:14.495Z,992.22
2017-09-13T10:39:14.516Z,992.85
2017-09-13T10:40:14.455Z,993.25
2017-09-13T10:41:14.437Z,993.34
2017-09-13T10:42:14.415Z,992.62
2017-09-13T10:43:14.395Z,993.05
2017-09-13T10:44:14.375Z,992.63
2017-09-13T10:45:14.355Z,992.74
2017-09-13T10:46:14.335Z,991.72
2017-09-13T10:47:14.313Z,992.30
2017-09-13T10:48:14.293Z,992.78
2017-09-13T10:49:14.271Z,992.41
2017-09-13T10:50:14.251Z,992.63
2017-09-13T10:51:14.301Z,992.40
2017-09-13T10:52:14.208Z,992.63
2017-09-13T10:53:14.188Z,992.61
2017-09-13T10:54:14.169Z,992.73
2017-09-13T10:55:14.143Z,992.96
2017-09-13T10:56:14.121Z,992.92
2017-09-13T10:57:14.101Z,992.57
2017-09-13T10:58:14.083Z,992.90
2017-09-13T10:59:14.058Z,992.10
2017-09-13T11:00:14.038Z,992.89
2017-09-13T11:01:14.016Z,993.01
2017-09-13T11:02:13.998Z,992.80
2017-09-13T11:03:13.969Z,992.72
2017-09-13T11:04:13.951Z,993.23
2017-09-13T11:05:13.944Z,993.02
2017-09-13T11:06:13.908Z,992.89
2017-09-13T11:07:13.888Z,992.81
2017-09-13T11:08:13.866Z,992.71
2017-09-13T11:09:13.845Z,992.77
2017-09-13T11:10:13.825Z,992.76
2017-09-13T11:11:13.812Z,993.14
2017-09-13T11:12:13.781Z,992.91
2017-09-13T11:13:13.760Z,992.76
2017-09-13T11:14:13.738Z,993.20
2017-09-13T11:15:13.717Z,992.93
2017-09-13T11:16:13.696Z,993.05
2017-09-13T11:17:13.675Z,992.96
2017-09-13T11:18:13.654Z,993.29
2017-09-13T11:19:13.700Z,993.10
2017-09-13T11:20:13.612Z,993.08
2017-09-13T11:21:13.593Z,993.33
2017-09-13T11:22:13.707Z,993.21
2017-09-13T11:23:13.550Z,993.14
2017-09-13T11:24:13.529Z,992.26
2017-09-13T11:25:13.509Z,993.20
2017-09-13T11:26:13.940Z,992.55
2017-09-13T11:27:13.467Z,993.28
2017-09-13T11:28:13.441Z,993.26
2017-09-13T11:29:13.430Z,993.04
2017-09-13T11:30:13.406Z,992.69
2017-09-13T11:31:13.385Z,993.36
2017-09-13T11:32:13.947Z,993.31
2017-09-13T11:33:13.347Z,992.97
2017-09-13T11:34:13.326Z,993.54
2017-09-13T11:35:13.303Z,992.96
2017-09-13T11:36:13.283Z,993.16
2017-09-13T11:37:13.266Z,993.33
2017-09-13T11:38:13.251Z,993.41
2017-09-13T11:39:13.219Z,992.90
2017-09-13T11:40:13.199Z,993.14
2017-09-13T11:41:13.180Z,993.09
2017-09-13T11:42:13.162Z,993.41
2017-09-13T11:43:13.138Z,993.56
2017-09-13T11:44:13.121Z,993.23
2017-09-13T11:45:13.102Z,993.34
2017-09-13T11:46:13.076Z,993.12
2017-09-13T11:47:13.051Z,993.23
2017-09-13T11:48:13.033Z,993.49
2017-09-13T11:49:13.010Z,993.19
2017-09-13T11:50:12.999Z,993.38
2017-09-13T11:51:12.971Z,993.46
2017-09-13T11:52:12.953Z,993.28
2017-09-13T11:53:12.926Z,993.43
2017-09-13T11:54:12.904Z,993.67
2017-09-13T11:55:12.884Z,993.53
2017-09-13T11:56:12.862Z,992.79
2017-09-13T11:57:12.839Z,993.55
2017-09-13T11:58:12.819Z,993.27
2017-09-13T11:59:12.794Z,993.24
2017-09-13T12:00:12.772Z,993.24
2017-09-13T12:01:12.751Z,994.08
2017-09-13T12:02:12.741Z,993.58
2017-09-13T12:03:12.706Z,993.67
2017-09-13T12:04:12.683Z,993.40
2017-09-13T12:05:12.661Z,993.40
2017-09-13T12:06:12.660Z,993.50
2017-09-13T12:07:12.615Z,993.33
2017-09-13T12:08:12.665Z,992.94
2017-09-13T12:09:12.571Z,993.16
2017-09-13T12:10:12.549Z,993.29
2017-09-13T12:11:12.736Z,993.51
2017-09-13T12:12:12.499Z,993.29
2017-09-13T12:13:12.478Z,993.58
2017-09-13T12:14:12.448Z,993.86
2017-09-13T12:15:12.431Z,993.61
2017-09-13T12:16:12.408Z,993.30
2017-09-13T12:17:12.383Z,993.76
2017-09-13T12:18:12.361Z,993.75
2017-09-13T12:19:12.342Z,993.93
2017-09-13T12:20:12.317Z,993.99
2017-09-13T12:21:12.295Z,993.80
2017-09-13T12:22:12.272Z,993.82
2017-09-13T12:23:12.252Z,993.84
2017-09-13T12:24:12.230Z,993.77
2017-09-13T12:25:12.209Z,993.96
2017-09-13T12:26:12.192Z,993.96
2017-09-13T12:27:12.168Z,993.59
2017-09-13T12:28:12.147Z,993.86